Time,TemperatureF,DewpointF,PressureIn,WindDirection,WindDirectionDegrees,WindSpeedMPH,WindSpeedGustMPH,Humidity,HourlyPrecipIn,Conditions,Clouds,dailyrainin,SoftwareType,DateUTC
2013-04-05 00:00:00,38.2,29.3,29.38,South,180,0.9,0.9,70,0.01,,,0.01,WUHU216HW,2013-04-05 04:00:00,
2013-04-05 00:05:00,38.2,29.3,29.38,South,180,0.9,0.9,70,0.01,,,0.01,WUHU216HW,2013-04-05 04:05:00,
2013-04-05 00:30:00,37.8,30.2,29.36,NNE,23,1.1,1.1,74,0.00,,,0.00,WUHU216HW,2013-04-05 04:30:00,
2013-04-05 00:35:00,37.8,30.2,29.36,NNE,23,1.1,1.1,74,0.00,,,0.00,WUHU216HW,2013-04-05 04:35:00,
2013-04-05 00:59:00,37.4,30.6,29.35,ENE,68,1.6,1.6,76,0.00,,,0.00,WUHU216HW,2013-04-05 04:59:00,
2013-04-05 01:00:00,37.4,30.6,29.35,ENE,68,1.6,1.6,76,0.00,,,0.00,WUHU216HW,2013-04-05 05:00:00,
2013-04-05 01:05:00,37.4,30.6,29.35,ENE,68,1.6,1.6,76,0.00,,,0.00,WUHU216HW,2013-04-05 05:05:00,
2013-04-05 01:30:00,37.1,30.9,29.34,SE,135,1.8,1.8,78,0.01,,,0.00,WUHU216HW,2013-04-05 05:30:00,
2013-04-05 01:35:00,37.1,30.9,29.34,SE,135,1.8,1.8,78,0.01,,,0.00,WUHU216HW,2013-04-05 05:35:00,
2013-04-05 01:59:00,36.9,30.7,29.32,SE,135,1.3,1.3,78,0.01,,,0.01,WUHU216HW,2013-04-05 05:59:00,
2013-04-05 02:00:00,36.9,30.7,29.32,SE,135,1.3,1.3,78,0.01,,,0.01,WUHU216HW,2013-04-05 06:00:00,
2013-04-05 02:05:00,36.9,30.7,29.32,SE,135,1.3,1.3,78,0.01,,,0.01,WUHU216HW,2013-04-05 06:05:00,
2013-04-05 02:29:00,36.7,30.8,29.30,SE,135,1.6,1.6,79,0.00,,,0.01,WUHU216HW,2013-04-05 06:29:00,
2013-04-05 02:30:00,36.7,30.8,29.30,SE,135,1.6,1.6,79,0.00,,,0.01,WUHU216HW,2013-04-05 06:30:00,
2013-04-05 02:35:00,36.7,30.8,29.30,SE,135,1.6,1.6,79,0.00,,,0.01,WUHU216HW,2013-04-05 06:35:00,
2013-04-05 02:59:00,36.9,31.0,29.28,SSE,158,0.0,0.0,79,0.00,,,0.01,WUHU216HW,2013-04-05 06:59:00,
2013-04-05 03:00:00,36.9,31.0,29.28,SSE,158,0.0,0.0,79,0.00,,,0.01,WUHU216HW,2013-04-05 07:00:00,
2013-04-05 03:05:00,36.9,31.0,29.28,SSE,158,0.0,0.0,79,0.00,,,0.01,WUHU216HW,2013-04-05 07:05:00,
2013-04-05 03:30:00,36.9,31.3,29.27,SSE,158,0.7,0.7,80,0.00,,,0.01,WUHU216HW,2013-04-05 07:30:00,
2013-04-05 03:35:00,36.9,31.3,29.27,SSE,158,0.7,0.7,80,0.00,,,0.01,WUHU216HW,2013-04-05 07:35:00,
2013-04-05 04:00:00,37.1,31.5,29.28,SSE,158,0.7,0.7,80,0.00,,,0.01,WUHU216HW,2013-04-05 08:00:00,
2013-04-05 04:05:00,37.1,31.5,29.28,SSE,158,0.7,0.7,80,0.00,,,0.01,WUHU216HW,2013-04-05 08:05:00,
2013-04-05 04:30:00,37.1,31.5,29.28,SW,225,0.4,0.4,80,0.00,,,0.01,WUHU216HW,2013-04-05 08:30:00,
2013-04-05 04:35:00,37.1,31.5,29.28,SW,225,0.4,0.4,80,0.00,,,0.01,WUHU216HW,2013-04-05 08:35:00,
2013-04-05 05:00:00,36.9,31.3,29.28,West,270,0.4,0.4,80,0.00,,,0.01,WUHU216HW,2013-04-05 09:00:00,
2013-04-05 05:05:00,36.9,31.3,29.28,West,270,0.4,0.4,80,0.00,,,0.01,WUHU216HW,2013-04-05 09:05:00,
2013-04-05 05:30:00,36.9,31.3,29.28,SW,225,0.4,0.4,80,0.00,,,0.01,WUHU216HW,2013-04-05 09:30:00,
2013-04-05 05:35:00,36.9,31.3,29.28,SW,225,0.4,0.4,80,0.00,,,0.01,WUHU216HW,2013-04-05 09:35:00,
2013-04-05 06:00:00,36.2,30.6,29.28,NW,315,2.0,2.0,80,0.00,,,0.01,WUHU216HW,2013-04-05 10:00:00,
2013-04-05 06:05:00,36.2,30.6,29.28,NW,315,2.0,2.0,80,0.00,,,0.01,WUHU216HW,2013-04-05 10:05:00,
2013-04-05 06:30:00,35.6,30.6,29.28,SSW,203,1.1,1.1,82,0.00,,,0.01,WUHU216HW,2013-04-05 10:30:00,
2013-04-05 06:35:00,35.6,30.6,29.28,SSW,203,1.1,1.1,82,0.00,,,0.01,WUHU216HW,2013-04-05 10:35:00,
2013-04-05 06:59:00,34.9,29.9,29.28,WSW,248,0.7,0.7,82,0.00,,,0.01,WUHU216HW,2013-04-05 10:59:00,
2013-04-05 07:00:00,34.9,29.9,29.28,WSW,248,0.7,0.7,82,0.00,,,0.01,WUHU216HW,2013-04-05 11:00:00,
2013-04-05 07:05:00,34.9,29.9,29.28,WSW,248,0.7,0.7,82,0.00,,,0.01,WUHU216HW,2013-04-05 11:05:00,
2013-04-05 07:29:00,35.3,30.2,29.29,SW,225,1.1,1.1,82,0.00,,,0.01,WUHU216HW,2013-04-05 11:29:00,
2013-04-05 07:30:00,35.3,30.2,29.29,SW,225,1.1,1.1,82,0.00,,,0.01,WUHU216HW,2013-04-05 11:30:00,
2013-04-05 07:35:00,35.3,30.2,29.29,SW,225,1.1,1.1,82,0.00,,,0.01,WUHU216HW,2013-04-05 11:35:00,
2013-04-05 07:59:00,36.4,31.7,29.28,South,180,2.5,2.5,83,0.00,,,0.01,WUHU216HW,2013-04-05 11:59:00,
2013-04-05 08:00:00,36.4,31.7,29.28,South,180,2.5,2.5,83,0.00,,,0.01,WUHU216HW,2013-04-05 12:00:00,
2013-04-05 08:05:00,36.4,31.7,29.28,South,180,2.5,2.5,83,0.00,,,0.01,WUHU216HW,2013-04-05 12:05:00,
2013-04-05 08:29:00,37.3,32.9,29.28,WSW,248,1.1,1.1,84,0.00,,,0.01,WUHU216HW,2013-04-05 12:29:00,
2013-04-05 08:30:00,37.3,32.9,29.28,WSW,248,1.1,1.1,84,0.00,,,0.01,WUHU216HW,2013-04-05 12:30:00,
2013-04-05 08:35:00,37.3,32.9,29.28,WSW,248,1.1,1.1,84,0.00,,,0.01,WUHU216HW,2013-04-05 12:35:00,
2013-04-05 08:59:00,39.8,35.7,29.27,WNW,293,1.3,1.3,85,0.00,,,0.01,WUHU216HW,2013-04-05 12:59:00,
2013-04-05 09:00:00,39.8,35.7,29.27,WNW,293,1.3,1.3,85,0.00,,,0.01,WUHU216HW,2013-04-05 13:00:00,
2013-04-05 09:05:00,39.8,35.7,29.27,WNW,293,1.3,1.3,85,0.00,,,0.01,WUHU216HW,2013-04-05 13:05:00,
2013-04-05 09:30:00,41.8,37.5,29.26,SW,225,6.0,6.0,85,0.00,,,0.01,WUHU216HW,2013-04-05 13:30:00,
2013-04-05 09:35:00,41.8,37.5,29.26,SW,225,6.0,6.0,85,0.00,,,0.01,WUHU216HW,2013-04-05 13:35:00,
2013-04-05 09:59:00,44.5,39.3,29.27,SSW,203,3.4,3.4,82,0.00,,,0.01,WUHU216HW,2013-04-05 13:59:00,
2013-04-05 10:00:00,44.5,39.3,29.27,SSW,203,3.4,3.4,82,0.00,,,0.01,WUHU216HW,2013-04-05 14:00:00,
2013-04-05 10:05:00,44.5,39.3,29.27,SSW,203,3.4,3.4,82,0.00,,,0.01,WUHU216HW,2013-04-05 14:05:00,
2013-04-05 10:30:00,48.1,40.4,29.27,SSW,203,5.1,5.1,75,0.00,,,0.01,WUHU216HW,2013-04-05 14:30:00,
2013-04-05 10:35:00,48.1,40.4,29.27,SSW,203,5.1,5.1,75,0.00,,,0.01,WUHU216HW,2013-04-05 14:35:00,
2013-04-05 10:59:00,51.8,29.3,29.27,NNW,338,6.0,6.0,42,0.00,,,0.01,WUHU216HW,2013-04-05 14:59:00,
2013-04-05 11:00:00,51.8,29.3,29.27,NNW,338,6.0,6.0,42,0.00,,,0.01,WUHU216HW,2013-04-05 15:00:00,
2013-04-05 11:05:00,51.8,29.3,29.27,NNW,338,6.0,6.0,42,0.00,,,0.01,WUHU216HW,2013-04-05 15:05:00,
2013-04-05 11:30:00,53.6,27.8,29.27,North,0,6.9,6.9,37,0.00,,,0.01,WUHU216HW,2013-04-05 15:30:00,
2013-04-05 11:35:00,53.6,27.8,29.27,North,0,6.9,6.9,37,0.00,,,0.01,WUHU216HW,2013-04-05 15:35:00,
2013-04-05 11:59:00,55.4,26.6,29.26,NNW,338,9.8,9.8,33,0.00,,,0.01,WUHU216HW,2013-04-05 15:59:00,
2013-04-05 12:00:00,55.4,26.6,29.26,NNW,338,9.8,9.8,33,0.00,,,0.01,WUHU216HW,2013-04-05 16:00:00,
2013-04-05 12:05:00,55.4,26.6,29.26,NNW,338,9.8,9.8,33,0.00,,,0.01,WUHU216HW,2013-04-05 16:05:00,
2013-04-05 12:30:00,56.5,27.5,29.25,NNW,338,9.8,9.8,33,0.00,,,0.01,WUHU216HW,2013-04-05 16:30:00,
2013-04-05 12:35:00,56.5,27.5,29.25,NNW,338,9.8,9.8,33,0.00,,,0.01,WUHU216HW,2013-04-05 16:35:00,
2013-04-05 12:59:00,57.6,26.5,29.23,WNW,293,4.7,4.7,30,0.00,,,0.01,WUHU216HW,2013-04-05 16:59:00,
2013-04-05 13:00:00,57.6,26.5,29.23,WNW,293,4.7,4.7,30,0.00,,,0.01,WUHU216HW,2013-04-05 17:00:00,
2013-04-05 13:05:00,57.6,26.5,29.23,WNW,293,4.7,4.7,30,0.00,,,0.01,WUHU216HW,2013-04-05 17:05:00,
2013-04-05 13:30:00,58.9,27.5,29.21,North,0,4.0,4.0,30,0.00,,,0.01,WUHU216HW,2013-04-05 17:30:00,
2013-04-05 13:35:00,58.9,27.5,29.21,North,0,4.0,4.0,30,0.00,,,0.01,WUHU216HW,2013-04-05 17:35:00,
2013-04-05 13:59:00,60.1,26.6,29.20,NNW,338,9.8,9.8,28,0.00,,,0.01,WUHU216HW,2013-04-05 17:59:00,
2013-04-05 14:00:00,60.1,26.6,29.20,NNW,338,9.8,9.8,28,0.00,,,0.01,WUHU216HW,2013-04-05 18:00:00,
2013-04-05 14:05:00,60.1,26.6,29.20,NNW,338,9.8,9.8,28,0.00,,,0.01,WUHU216HW,2013-04-05 18:05:00,
2013-04-05 14:30:00,61.4,27.7,29.19,NNW,338,8.3,8.3,28,0.00,,,0.01,WUHU216HW,2013-04-05 18:30:00,
2013-04-05 14:35:00,61.4,27.7,29.19,NNW,338,8.3,8.3,28,0.00,,,0.01,WUHU216HW,2013-04-05 18:35:00,
2013-04-05 14:59:00,61.7,28.1,29.19,NNW,338,12.8,12.8,28,0.00,,,0.01,WUHU216HW,2013-04-05 18:59:00,
2013-04-05 15:00:00,61.7,28.1,29.19,NNW,338,12.8,12.8,28,0.00,,,0.01,WUHU216HW,2013-04-05 19:00:00,
2013-04-05 15:05:00,61.7,28.1,29.19,NNW,338,12.8,12.8,28,0.00,,,0.01,WUHU216HW,2013-04-05 19:05:00,
2013-04-05 15:30:00,62.6,28.8,29.18,NNW,338,8.5,8.5,28,0.00,,,0.01,WUHU216HW,2013-04-05 19:30:00,
2013-04-05 15:35:00,62.6,28.8,29.18,NNW,338,8.5,8.5,28,0.00,,,0.01,WUHU216HW,2013-04-05 19:35:00,
2013-04-05 15:59:00,62.8,28.0,29.18,NW,315,11.2,11.2,27,0.00,,,0.01,WUHU216HW,2013-04-05 19:59:00,
2013-04-05 16:00:00,62.8,28.0,29.18,NW,315,11.2,11.2,27,0.00,,,0.01,WUHU216HW,2013-04-05 20:00:00,
2013-04-05 16:05:00,62.8,28.0,29.18,NW,315,11.2,11.2,27,0.00,,,0.01,WUHU216HW,2013-04-05 20:05:00,
2013-04-05 16:30:00,62.6,25.9,29.18,NW,315,14.3,14.3,25,0.00,,,0.01,WUHU216HW,2013-04-05 20:30:00,
2013-04-05 16:35:00,62.6,25.9,29.18,NW,315,14.3,14.3,25,0.00,,,0.01,WUHU216HW,2013-04-05 20:35:00,
2013-04-05 17:00:00,62.5,27.7,29.20,NW,315,8.9,8.9,27,0.00,,,0.01,WUHU216HW,2013-04-05 21:00:00,
2013-04-05 17:05:00,62.5,27.7,29.20,NW,315,8.9,8.9,27,0.00,,,0.01,WUHU216HW,2013-04-05 21:05:00,
2013-04-05 17:30:00,62.1,28.4,29.21,North,0,7.6,7.6,28,0.00,,,0.01,WUHU216HW,2013-04-05 21:30:00,
2013-04-05 17:35:00,62.1,28.4,29.21,North,0,7.6,7.6,28,0.00,,,0.01,WUHU216HW,2013-04-05 21:35:00,
2013-04-05 18:00:00,61.4,26.7,29.23,NW,315,18.3,18.3,27,0.00,,,0.01,WUHU216HW,2013-04-05 22:00:00,
2013-04-05 18:05:00,61.4,26.7,29.23,NW,315,18.3,18.3,27,0.00,,,0.01,WUHU216HW,2013-04-05 22:05:00,
2013-04-05 18:30:00,60.1,26.6,29.25,NNW,338,5.6,5.6,28,0.00,,,0.01,WUHU216HW,2013-04-05 22:30:00,
2013-04-05 18:35:00,60.1,26.6,29.25,NNW,338,5.6,5.6,28,0.00,,,0.01,WUHU216HW,2013-04-05 22:35:00,
2013-04-05 19:00:00,58.7,28.1,29.26,NW,315,5.4,5.4,31,0.00,,,0.01,WUHU216HW,2013-04-05 23:00:00,
2013-04-05 19:05:00,58.7,28.1,29.26,NW,315,5.4,5.4,31,0.00,,,0.01,WUHU216HW,2013-04-05 23:05:00,
2013-04-05 19:30:00,56.9,27.2,29.28,North,0,4.0,4.0,32,0.00,,,0.01,WUHU216HW,2013-04-05 23:30:00,
2013-04-05 19:35:00,56.9,27.2,29.28,North,0,4.0,4.0,32,0.00,,,0.01,WUHU216HW,2013-04-05 23:35:00,
2013-04-05 20:00:00,55.3,26.5,29.29,North,0,2.7,2.7,33,0.00,,,0.01,WUHU216HW,2013-04-06 00:00:00,
2013-04-05 20:05:00,55.3,26.5,29.29,North,0,2.7,2.7,33,0.00,,,0.01,WUHU216HW,2013-04-06 00:05:00,
2013-04-05 20:30:00,53.6,27.2,29.31,NNW,338,2.7,2.7,36,0.00,,,0.01,WUHU216HW,2013-04-06 00:30:00,
2013-04-05 20:35:00,53.6,27.2,29.31,NNW,338,2.7,2.7,36,0.00,,,0.01,WUHU216HW,2013-04-06 00:35:00,
2013-04-05 21:00:00,53.1,26.6,29.34,NNW,338,1.8,1.8,36,0.00,,,0.01,WUHU216HW,2013-04-06 01:00:00,
2013-04-05 21:05:00,53.1,26.6,29.34,NNW,338,1.8,1.8,36,0.00,,,0.01,WUHU216HW,2013-04-06 01:05:00,
2013-04-05 21:30:00,51.8,24.8,29.36,NW,315,7.8,7.8,35,0.00,,,0.01,WUHU216HW,2013-04-06 01:30:00,
2013-04-05 22:00:00,50.9,23.3,29.36,NNW,338,8.7,8.7,34,0.00,,,0.01,WUHU216HW,2013-04-06 02:00:00,
2013-04-05 22:05:00,50.9,23.3,29.36,NNW,338,8.7,8.7,34,0.00,,,0.01,WUHU216HW,2013-04-06 02:05:00,
2013-04-05 22:30:00,49.9,23.8,29.38,North,0,2.5,2.5,36,0.00,,,0.01,WUHU216HW,2013-04-06 02:30:00,
2013-04-05 22:35:00,49.9,23.8,29.38,North,0,2.5,2.5,36,0.00,,,0.01,WUHU216HW,2013-04-06 02:35:00,
2013-04-05 23:00:00,48.2,23.7,29.39,NNW,338,2.7,2.7,38,0.00,,,0.01,WUHU216HW,2013-04-06 03:00:00,
2013-04-05 23:05:00,48.2,23.7,29.39,NNW,338,2.7,2.7,38,0.00,,,0.01,WUHU216HW,2013-04-06 03:05:00,
2013-04-05 23:30:00,47.5,23.0,29.39,NW,315,3.8,3.8,38,0.00,,,0.01,WUHU216HW,2013-04-06 03:30:00,
2013-04-05 23:35:00,47.5,23.0,29.39,NW,315,3.8,3.8,38,0.00,,,0.01,WUHU216HW,2013-04-06 03:35:00,